sensor_id;sensor_type;location;lat;lon;timestamp;P1;durP1;ratioP1;P2;durP2;ratioP2
16314;SDS011;8266;52.150;4.768;2022-11-11T00:00:50;6.75;;;5.53;;
16314;SDS011;8266;52.150;4.768;2022-11-11T00:03:25;9.35;;;5.50;;
16314;SDS011;8266;52.150;4.768;2022-11-11T00:05:52;11.77;;;6.07;;
16314;SDS011;8266;52.150;4.768;2022-11-11T00:08:19;9.15;;;6.22;;
16314;SDS011;8266;52.150;4.768;2022-11-11T00:10:47;7.72;;;5.93;;
16314;SDS011;8266;52.150;4.768;2022-11-11T00:13:17;11.75;;;6.60;;
16314;SDS011;8266;52.150;4.768;2022-11-11T00:15:43;11.23;;;7.25;;
16314;SDS011;8266;52.150;4.768;2022-11-11T00:18:10;9.73;;;7.18;;
16314;SDS011;8266;52.150;4.768;2022-11-11T00:20:56;10.52;;;7.22;;
16314;SDS011;8266;52.150;4.768;2022-11-11T00:23:41;11.43;;;7.93;;
16314;SDS011;8266;52.150;4.768;2022-11-11T00:26:30;10.65;;;7.60;;
16314;SDS011;8266;52.150;4.768;2022-11-11T00:28:57;8.57;;;7.68;;
16314;SDS011;8266;52.150;4.768;2022-11-11T00:31:24;12.43;;;8.52;;
16314;SDS011;8266;52.150;4.768;2022-11-11T00:33:51;13.13;;;8.90;;
16314;SDS011;8266;52.150;4.768;2022-11-11T00:36:18;11.27;;;9.25;;
16314;SDS011;8266;52.150;4.768;2022-11-11T00:38:44;12.40;;;9.02;;
16314;SDS011;8266;52.150;4.768;2022-11-11T00:41:12;11.75;;;9.45;;
16314;SDS011;8266;52.150;4.768;2022-11-11T00:43:41;10.57;;;8.60;;
16314;SDS011;8266;52.150;4.768;2022-11-11T00:46:08;12.75;;;9.25;;
16314;SDS011;8266;52.150;4.768;2022-11-11T00:48:53;15.40;;;10.10;;
16314;SDS011;8266;52.150;4.768;2022-11-11T00:51:37;13.40;;;10.48;;
16314;SDS011;8266;52.150;4.768;2022-11-11T00:54:05;10.85;;;9.13;;
16314;SDS011;8266;52.150;4.768;2022-11-11T00:56:32;14.30;;;11.05;;
16314;SDS011;8266;52.150;4.768;2022-11-11T00:59:03;12.95;;;10.20;;
16314;SDS011;8266;52.150;4.768;2022-11-11T01:01:30;19.58;;;12.68;;
16314;SDS011;8266;52.150;4.768;2022-11-11T01:03:57;14.65;;;11.80;;
16314;SDS011;8266;52.150;4.768;2022-11-11T01:06:24;14.18;;;11.80;;
16314;SDS011;8266;52.150;4.768;2022-11-11T01:08:51;13.30;;;11.52;;
16314;SDS011;8266;52.150;4.768;2022-11-11T01:11:19;15.82;;;12.50;;
16314;SDS011;8266;52.150;4.768;2022-11-11T01:13:48;14.52;;;12.15;;
16314;SDS011;8266;52.150;4.768;2022-11-11T01:16:18;13.45;;;11.50;;
16314;SDS011;8266;52.150;4.768;2022-11-11T01:18:46;15.82;;;12.88;;
16314;SDS011;8266;52.150;4.768;2022-11-11T01:21:15;15.98;;;12.95;;
16314;SDS011;8266;52.150;4.768;2022-11-11T01:23:44;14.40;;;12.15;;
16314;SDS011;8266;52.150;4.768;2022-11-11T01:26:13;18.67;;;12.93;;
16314;SDS011;8266;52.150;4.768;2022-11-11T01:28:42;16.73;;;12.52;;
16314;SDS011;8266;52.150;4.768;2022-11-11T01:31:13;15.38;;;12.85;;
16314;SDS011;8266;52.150;4.768;2022-11-11T01:33:42;16.50;;;12.82;;
16314;SDS011;8266;52.150;4.768;2022-11-11T01:36:10;14.15;;;12.63;;
16314;SDS011;8266;52.150;4.768;2022-11-11T01:38:39;16.25;;;13.13;;
16314;SDS011;8266;52.150;4.768;2022-11-11T01:41:07;14.93;;;13.18;;
16314;SDS011;8266;52.150;4.768;2022-11-11T01:43:55;16.42;;;12.85;;
16314;SDS011;8266;52.150;4.768;2022-11-11T01:46:29;16.83;;;14.15;;
16314;SDS011;8266;52.150;4.768;2022-11-11T01:49:03;15.07;;;12.68;;
16314;SDS011;8266;52.150;4.768;2022-11-11T01:51:44;15.75;;;13.10;;
16314;SDS011;8266;52.150;4.768;2022-11-11T01:54:18;14.85;;;13.20;;
16314;SDS011;8266;52.150;4.768;2022-11-11T01:56:48;16.65;;;13.50;;
16314;SDS011;8266;52.150;4.768;2022-11-11T01:59:16;19.45;;;14.02;;
16314;SDS011;8266;52.150;4.768;2022-11-11T02:01:44;18.48;;;14.18;;
16314;SDS011;8266;52.150;4.768;2022-11-11T02:04:14;15.60;;;13.80;;
16314;SDS011;8266;52.150;4.768;2022-11-11T02:07:00;15.27;;;13.68;;
16314;SDS011;8266;52.150;4.768;2022-11-11T02:09:31;16.02;;;14.05;;
16314;SDS011;8266;52.150;4.768;2022-11-11T02:11:58;18.42;;;14.38;;
16314;SDS011;8266;52.150;4.768;2022-11-11T02:14:51;17.35;;;14.13;;
16314;SDS011;8266;52.150;4.768;2022-11-11T02:17:20;17.73;;;14.68;;
16314;SDS011;8266;52.150;4.768;2022-11-11T02:19:51;18.85;;;15.15;;
16314;SDS011;8266;52.150;4.768;2022-11-11T02:22:22;16.33;;;14.52;;
16314;SDS011;8266;52.150;4.768;2022-11-11T02:24:55;18.83;;;15.25;;
16314;SDS011;8266;52.150;4.768;2022-11-11T02:27:23;18.45;;;14.50;;
16314;SDS011;8266;52.150;4.768;2022-11-11T02:29:54;16.17;;;13.98;;
16314;SDS011;8266;52.150;4.768;2022-11-11T02:32:23;16.40;;;13.63;;
16314;SDS011;8266;52.150;4.768;2022-11-11T02:34:50;16.60;;;14.25;;
16314;SDS011;8266;52.150;4.768;2022-11-11T02:37:22;17.83;;;14.80;;
16314;SDS011;8266;52.150;4.768;2022-11-11T02:39:51;16.02;;;14.18;;
16314;SDS011;8266;52.150;4.768;2022-11-11T02:42:23;16.55;;;13.63;;
16314;SDS011;8266;52.150;4.768;2022-11-11T02:44:50;20.98;;;14.70;;
16314;SDS011;8266;52.150;4.768;2022-11-11T02:47:23;21.00;;;15.48;;
16314;SDS011;8266;52.150;4.768;2022-11-11T02:49:51;18.30;;;13.88;;
16314;SDS011;8266;52.150;4.768;2022-11-11T02:52:18;20.27;;;15.32;;
16314;SDS011;8266;52.150;4.768;2022-11-11T02:54:45;18.42;;;15.25;;
16314;SDS011;8266;52.150;4.768;2022-11-11T02:57:14;17.40;;;14.75;;
16314;SDS011;8266;52.150;4.768;2022-11-11T02:59:42;20.85;;;15.15;;
16314;SDS011;8266;52.150;4.768;2022-11-11T03:02:09;20.00;;;14.38;;
16314;SDS011;8266;52.150;4.768;2022-11-11T03:04:36;18.55;;;15.13;;
16314;SDS011;8266;52.150;4.768;2022-11-11T03:07:03;18.05;;;15.45;;
16314;SDS011;8266;52.150;4.768;2022-11-11T03:09:30;20.38;;;15.98;;
16314;SDS011;8266;52.150;4.768;2022-11-11T03:11:57;21.80;;;16.17;;
16314;SDS011;8266;52.150;4.768;2022-11-11T03:14:25;21.65;;;16.08;;
16314;SDS011;8266;52.150;4.768;2022-11-11T03:16:52;19.77;;;16.05;;
16314;SDS011;8266;52.150;4.768;2022-11-11T03:19:37;18.10;;;16.00;;
16314;SDS011;8266;52.150;4.768;2022-11-11T03:22:04;18.08;;;15.50;;
16314;SDS011;8266;52.150;4.768;2022-11-11T03:24:30;19.67;;;15.38;;
16314;SDS011;8266;52.150;4.768;2022-11-11T03:27:11;19.08;;;16.13;;
16314;SDS011;8266;52.150;4.768;2022-11-11T03:29:39;18.95;;;14.50;;
16314;SDS011;8266;52.150;4.768;2022-11-11T03:32:07;22.48;;;15.05;;
16314;SDS011;8266;52.150;4.768;2022-11-11T03:34:34;18.65;;;15.43;;
16314;SDS011;8266;52.150;4.768;2022-11-11T03:37:01;18.52;;;15.43;;
16314;SDS011;8266;52.150;4.768;2022-11-11T03:39:47;18.65;;;14.77;;
16314;SDS011;8266;52.150;4.768;2022-11-11T03:42:14;17.38;;;14.45;;
16314;SDS011;8266;52.150;4.768;2022-11-11T03:44:42;17.02;;;15.23;;
16314;SDS011;8266;52.150;4.768;2022-11-11T03:47:09;19.85;;;15.20;;
16314;SDS011;8266;52.150;4.768;2022-11-11T03:49:36;18.15;;;14.50;;
16314;SDS011;8266;52.150;4.768;2022-11-11T03:52:03;18.92;;;14.73;;
16314;SDS011;8266;52.150;4.768;2022-11-11T03:54:30;18.08;;;14.75;;
16314;SDS011;8266;52.150;4.768;2022-11-11T03:56:57;17.92;;;14.65;;
16314;SDS011;8266;52.150;4.768;2022-11-11T03:59:38;17.65;;;13.43;;
16314;SDS011;8266;52.150;4.768;2022-11-11T04:02:06;17.58;;;14.50;;
16314;SDS011;8266;52.150;4.768;2022-11-11T04:04:53;18.73;;;14.65;;
16314;SDS011;8266;52.150;4.768;2022-11-11T04:07:38;18.70;;;15.02;;
16314;SDS011;8266;52.150;4.768;2022-11-11T04:10:22;19.60;;;14.98;;
16314;SDS011;8266;52.150;4.768;2022-11-11T04:12:49;18.40;;;14.73;;
16314;SDS011;8266;52.150;4.768;2022-11-11T04:15:34;18.55;;;15.18;;
16314;SDS011;8266;52.150;4.768;2022-11-11T04:18:20;17.05;;;13.73;;
16314;SDS011;8266;52.150;4.768;2022-11-11T04:21:07;17.42;;;14.80;;
16314;SDS011;8266;52.150;4.768;2022-11-11T04:23:52;17.92;;;15.10;;
16314;SDS011;8266;52.150;4.768;2022-11-11T04:26:19;16.52;;;13.70;;
16314;SDS011;8266;52.150;4.768;2022-11-11T04:28:45;19.90;;;15.23;;
16314;SDS011;8266;52.150;4.768;2022-11-11T04:31:29;15.93;;;14.27;;
16314;SDS011;8266;52.150;4.768;2022-11-11T04:33:58;18.77;;;14.57;;
16314;SDS011;8266;52.150;4.768;2022-11-11T04:36:24;17.33;;;13.98;;
16314;SDS011;8266;52.150;4.768;2022-11-11T04:38:51;16.98;;;14.95;;
16314;SDS011;8266;52.150;4.768;2022-11-11T04:41:35;15.93;;;14.23;;
16314;SDS011;8266;52.150;4.768;2022-11-11T04:44:02;17.88;;;14.98;;
16314;SDS011;8266;52.150;4.768;2022-11-11T04:46:47;16.98;;;14.40;;
16314;SDS011;8266;52.150;4.768;2022-11-11T04:49:15;16.65;;;14.50;;
16314;SDS011;8266;52.150;4.768;2022-11-11T04:51:42;17.60;;;14.10;;
16314;SDS011;8266;52.150;4.768;2022-11-11T04:54:26;19.55;;;14.98;;
16314;SDS011;8266;52.150;4.768;2022-11-11T04:57:13;17.50;;;14.05;;
16314;SDS011;8266;52.150;4.768;2022-11-11T04:59:39;19.02;;;14.93;;
16314;SDS011;8266;52.150;4.768;2022-11-11T05:02:06;16.08;;;14.38;;
16314;SDS011;8266;52.150;4.768;2022-11-11T05:04:52;18.10;;;14.02;;
16314;SDS011;8266;52.150;4.768;2022-11-11T05:07:19;18.25;;;14.10;;
16314;SDS011;8266;52.150;4.768;2022-11-11T05:10:03;16.33;;;14.38;;
16314;SDS011;8266;52.150;4.768;2022-11-11T05:12:30;19.52;;;15.38;;
16314;SDS011;8266;52.150;4.768;2022-11-11T05:14:57;16.55;;;14.52;;
16314;SDS011;8266;52.150;4.768;2022-11-11T05:17:42;17.50;;;14.25;;
16314;SDS011;8266;52.150;4.768;2022-11-11T05:20:27;14.88;;;12.88;;
16314;SDS011;8266;52.150;4.768;2022-11-11T05:23:12;16.08;;;14.38;;
16314;SDS011;8266;52.150;4.768;2022-11-11T05:25:39;19.92;;;14.68;;
16314;SDS011;8266;52.150;4.768;2022-11-11T05:28:05;16.25;;;13.30;;
16314;SDS011;8266;52.150;4.768;2022-11-11T05:30:31;14.95;;;13.45;;
16314;SDS011;8266;52.150;4.768;2022-11-11T05:32:59;15.35;;;13.63;;
16314;SDS011;8266;52.150;4.768;2022-11-11T05:35:29;15.55;;;12.95;;
16314;SDS011;8266;52.150;4.768;2022-11-11T05:38:00;17.70;;;14.07;;
16314;SDS011;8266;52.150;4.768;2022-11-11T05:40:46;18.92;;;14.23;;
16314;SDS011;8266;52.150;4.768;2022-11-11T05:43:13;17.60;;;14.07;;
16314;SDS011;8266;52.150;4.768;2022-11-11T05:45:40;15.05;;;13.40;;
16314;SDS011;8266;52.150;4.768;2022-11-11T05:48:07;14.57;;;12.68;;
16314;SDS011;8266;52.150;4.768;2022-11-11T05:50:35;14.65;;;13.10;;
16314;SDS011;8266;52.150;4.768;2022-11-11T05:53:05;14.63;;;12.52;;
16314;SDS011;8266;52.150;4.768;2022-11-11T05:55:32;16.70;;;13.52;;
16314;SDS011;8266;52.150;4.768;2022-11-11T05:57:59;14.75;;;13.13;;
16314;SDS011;8266;52.150;4.768;2022-11-11T06:00:26;16.33;;;13.50;;
16314;SDS011;8266;52.150;4.768;2022-11-11T06:02:53;18.60;;;13.18;;
16314;SDS011;8266;52.150;4.768;2022-11-11T06:05:21;19.02;;;13.23;;
16314;SDS011;8266;52.150;4.768;2022-11-11T06:07:50;14.90;;;12.93;;
16314;SDS011;8266;52.150;4.768;2022-11-11T06:10:18;15.07;;;13.45;;
16314;SDS011;8266;52.150;4.768;2022-11-11T06:12:58;17.40;;;12.73;;
16314;SDS011;8266;52.150;4.768;2022-11-11T06:15:29;14.07;;;12.68;;
16314;SDS011;8266;52.150;4.768;2022-11-11T06:17:57;14.43;;;13.05;;
16314;SDS011;8266;52.150;4.768;2022-11-11T06:20:24;15.25;;;13.48;;
16314;SDS011;8266;52.150;4.768;2022-11-11T06:22:52;14.43;;;12.57;;
16314;SDS011;8266;52.150;4.768;2022-11-11T06:25:22;16.40;;;12.68;;
16314;SDS011;8266;52.150;4.768;2022-11-11T06:28:07;15.15;;;13.13;;
16314;SDS011;8266;52.150;4.768;2022-11-11T06:30:35;16.35;;;13.23;;
16314;SDS011;8266;52.150;4.768;2022-11-11T06:33:02;18.05;;;13.65;;
16314;SDS011;8266;52.150;4.768;2022-11-11T06:35:31;21.33;;;14.75;;
16314;SDS011;8266;52.150;4.768;2022-11-11T06:38:00;14.57;;;13.07;;
16314;SDS011;8266;52.150;4.768;2022-11-11T06:40:27;14.25;;;12.75;;
16314;SDS011;8266;52.150;4.768;2022-11-11T06:42:57;15.57;;;13.30;;
16314;SDS011;8266;52.150;4.768;2022-11-11T06:45:25;14.82;;;13.27;;
16314;SDS011;8266;52.150;4.768;2022-11-11T06:47:57;15.82;;;13.18;;
16314;SDS011;8266;52.150;4.768;2022-11-11T06:50:24;14.07;;;12.57;;
16314;SDS011;8266;52.150;4.768;2022-11-11T06:52:52;14.55;;;12.80;;
16314;SDS011;8266;52.150;4.768;2022-11-11T06:55:20;14.60;;;13.05;;
16314;SDS011;8266;52.150;4.768;2022-11-11T06:57:48;15.23;;;12.73;;
16314;SDS011;8266;52.150;4.768;2022-11-11T07:00:15;16.42;;;12.88;;
16314;SDS011;8266;52.150;4.768;2022-11-11T07:02:43;13.98;;;12.48;;
16314;SDS011;8266;52.150;4.768;2022-11-11T07:05:11;17.23;;;12.95;;
16314;SDS011;8266;52.150;4.768;2022-11-11T07:07:39;15.15;;;12.65;;
16314;SDS011;8266;52.150;4.768;2022-11-11T07:10:08;14.63;;;13.13;;
16314;SDS011;8266;52.150;4.768;2022-11-11T07:12:41;13.85;;;12.45;;
16314;SDS011;8266;52.150;4.768;2022-11-11T07:15:30;16.25;;;14.50;;
16314;SDS011;8266;52.150;4.768;2022-11-11T07:18:00;14.82;;;13.32;;
16314;SDS011;8266;52.150;4.768;2022-11-11T07:23:28;15.15;;;13.60;;
16314;SDS011;8266;52.150;4.768;2022-11-11T07:26:18;15.48;;;13.50;;
16314;SDS011;8266;52.150;4.768;2022-11-11T07:29:04;15.45;;;13.23;;
16314;SDS011;8266;52.150;4.768;2022-11-11T07:31:40;14.85;;;13.30;;
16314;SDS011;8266;52.150;4.768;2022-11-11T07:34:12;13.77;;;12.32;;
16314;SDS011;8266;52.150;4.768;2022-11-11T07:36:39;16.08;;;13.85;;
16314;SDS011;8266;52.150;4.768;2022-11-11T07:39:06;16.48;;;12.90;;
16314;SDS011;8266;52.150;4.768;2022-11-11T07:41:48;13.65;;;12.20;;
16314;SDS011;8266;52.150;4.768;2022-11-11T07:44:16;15.07;;;13.50;;
16314;SDS011;8266;52.150;4.768;2022-11-11T07:46:44;16.63;;;13.10;;
16314;SDS011;8266;52.150;4.768;2022-11-11T07:49:11;15.38;;;13.85;;
16314;SDS011;8266;52.150;4.768;2022-11-11T07:51:40;14.85;;;13.13;;
16314;SDS011;8266;52.150;4.768;2022-11-11T07:54:10;14.88;;;13.38;;
16314;SDS011;8266;52.150;4.768;2022-11-11T07:56:37;15.73;;;13.40;;
16314;SDS011;8266;52.150;4.768;2022-11-11T07:59:04;16.25;;;12.85;;
16314;SDS011;8266;52.150;4.768;2022-11-11T08:01:34;14.63;;;12.93;;
16314;SDS011;8266;52.150;4.768;2022-11-11T08:04:01;14.38;;;12.88;;
16314;SDS011;8266;52.150;4.768;2022-11-11T08:06:28;14.82;;;13.35;;
16314;SDS011;8266;52.150;4.768;2022-11-11T08:08:55;20.15;;;13.35;;
16314;SDS011;8266;52.150;4.768;2022-11-11T08:11:24;15.27;;;13.75;;
16314;SDS011;8266;52.150;4.768;2022-11-11T08:14:05;15.30;;;13.88;;
16314;SDS011;8266;52.150;4.768;2022-11-11T08:16:33;15.93;;;14.23;;
16314;SDS011;8266;52.150;4.768;2022-11-11T08:19:00;15.98;;;13.68;;
16314;SDS011;8266;52.150;4.768;2022-11-11T08:21:28;15.15;;;13.65;;
16314;SDS011;8266;52.150;4.768;2022-11-11T08:23:55;15.40;;;13.77;;
16314;SDS011;8266;52.150;4.768;2022-11-11T08:26:22;13.98;;;12.57;;
16314;SDS011;8266;52.150;4.768;2022-11-11T08:28:50;15.93;;;13.05;;
16314;SDS011;8266;52.150;4.768;2022-11-11T08:31:18;13.38;;;12.07;;
16314;SDS011;8266;52.150;4.768;2022-11-11T08:33:46;16.73;;;13.38;;
16314;SDS011;8266;52.150;4.768;2022-11-11T08:36:13;12.93;;;11.63;;
16314;SDS011;8266;52.150;4.768;2022-11-11T08:38:40;14.60;;;13.18;;
16314;SDS011;8266;52.150;4.768;2022-11-11T08:41:07;14.02;;;12.60;;
16314;SDS011;8266;52.150;4.768;2022-11-11T08:43:36;14.20;;;12.70;;
16314;SDS011;8266;52.150;4.768;2022-11-11T08:46:03;13.65;;;12.25;;
16314;SDS011;8266;52.150;4.768;2022-11-11T08:48:30;13.20;;;11.77;;
16314;SDS011;8266;52.150;4.768;2022-11-11T08:50:59;13.63;;;12.15;;
16314;SDS011;8266;52.150;4.768;2022-11-11T08:53:26;13.55;;;11.80;;
16314;SDS011;8266;52.150;4.768;2022-11-11T08:55:54;13.40;;;11.88;;
16314;SDS011;8266;52.150;4.768;2022-11-11T08:58:21;12.80;;;11.40;;
16314;SDS011;8266;52.150;4.768;2022-11-11T09:00:48;12.68;;;11.25;;
16314;SDS011;8266;52.150;4.768;2022-11-11T09:03:15;11.90;;;10.60;;
16314;SDS011;8266;52.150;4.768;2022-11-11T09:05:42;13.93;;;11.43;;
16314;SDS011;8266;52.150;4.768;2022-11-11T09:08:12;13.80;;;12.40;;
16314;SDS011;8266;52.150;4.768;2022-11-11T09:10:41;12.40;;;10.50;;
16314;SDS011;8266;52.150;4.768;2022-11-11T09:13:08;11.75;;;10.57;;
16314;SDS011;8266;52.150;4.768;2022-11-11T09:15:35;12.48;;;11.18;;
16314;SDS011;8266;52.150;4.768;2022-11-11T09:18:02;11.90;;;10.60;;
16314;SDS011;8266;52.150;4.768;2022-11-11T09:20:29;12.57;;;10.13;;
16314;SDS011;8266;52.150;4.768;2022-11-11T09:22:56;11.40;;;10.20;;
16314;SDS011;8266;52.150;4.768;2022-11-11T09:25:25;12.50;;;11.18;;
16314;SDS011;8266;52.150;4.768;2022-11-11T09:27:53;12.75;;;10.07;;
16314;SDS011;8266;52.150;4.768;2022-11-11T09:30:21;11.88;;;9.73;;
16314;SDS011;8266;52.150;4.768;2022-11-11T09:32:49;11.48;;;9.35;;
16314;SDS011;8266;52.150;4.768;2022-11-11T09:35:16;12.32;;;10.20;;
16314;SDS011;8266;52.150;4.768;2022-11-11T09:37:51;11.27;;;10.13;;
16314;SDS011;8266;52.150;4.768;2022-11-11T09:40:20;12.00;;;10.50;;
16314;SDS011;8266;52.150;4.768;2022-11-11T09:42:52;11.15;;;9.40;;
16314;SDS011;8266;52.150;4.768;2022-11-11T09:45:29;10.60;;;9.23;;
16314;SDS011;8266;52.150;4.768;2022-11-11T09:48:10;10.15;;;9.15;;
16314;SDS011;8266;52.150;4.768;2022-11-11T09:50:59;10.80;;;9.70;;
16314;SDS011;8266;52.150;4.768;2022-11-11T09:53:31;10.35;;;9.25;;
16314;SDS011;8266;52.150;4.768;2022-11-11T09:56:05;10.70;;;9.63;;
16314;SDS011;8266;52.150;4.768;2022-11-11T09:58:40;10.88;;;9.80;;
16314;SDS011;8266;52.150;4.768;2022-11-11T10:01:13;11.45;;;9.80;;
16314;SDS011;8266;52.150;4.768;2022-11-11T10:03:44;11.13;;;10.00;;
16314;SDS011;8266;52.150;4.768;2022-11-11T10:06:17;11.60;;;10.43;;
16314;SDS011;8266;52.150;4.768;2022-11-11T10:08:48;10.55;;;9.38;;
16314;SDS011;8266;52.150;4.768;2022-11-11T10:11:28;12.70;;;10.10;;
16314;SDS011;8266;52.150;4.768;2022-11-11T10:14:03;10.90;;;9.80;;
16314;SDS011;8266;52.150;4.768;2022-11-11T10:16:32;11.45;;;9.23;;
16314;SDS011;8266;52.150;4.768;2022-11-11T10:19:11;12.55;;;9.52;;
16314;SDS011;8266;52.150;4.768;2022-11-11T10:21:49;9.93;;;8.93;;
16314;SDS011;8266;52.150;4.768;2022-11-11T10:24:21;12.50;;;9.55;;
16314;SDS011;8266;52.150;4.768;2022-11-11T10:26:54;10.00;;;9.00;;
16314;SDS011;8266;52.150;4.768;2022-11-11T10:29:24;10.07;;;9.07;;
16314;SDS011;8266;52.150;4.768;2022-11-11T10:31:57;10.43;;;9.15;;
16314;SDS011;8266;52.150;4.768;2022-11-11T10:34:31;10.77;;;9.68;;
16314;SDS011;8266;52.150;4.768;2022-11-11T10:36:59;10.23;;;9.23;;
16314;SDS011;8266;52.150;4.768;2022-11-11T10:39:43;9.68;;;8.75;;
16314;SDS011;8266;52.150;4.768;2022-11-11T10:42:19;11.05;;;9.80;;
16314;SDS011;8266;52.150;4.768;2022-11-11T10:44:47;9.75;;;8.73;;
16314;SDS011;8266;52.150;4.768;2022-11-11T10:47:18;12.07;;;9.93;;
16314;SDS011;8266;52.150;4.768;2022-11-11T10:49:56;11.25;;;8.75;;
16314;SDS011;8266;52.150;4.768;2022-11-11T10:52:29;11.30;;;8.90;;
16314;SDS011;8266;52.150;4.768;2022-11-11T10:55:01;9.85;;;8.85;;
16314;SDS011;8266;52.150;4.768;2022-11-11T10:57:35;9.38;;;8.20;;
16314;SDS011;8266;52.150;4.768;2022-11-11T11:00:06;10.13;;;9.10;;
16314;SDS011;8266;52.150;4.768;2022-11-11T11:02:37;9.07;;;8.27;;
16314;SDS011;8266;52.150;4.768;2022-11-11T11:05:07;9.05;;;8.10;;
16314;SDS011;8266;52.150;4.768;2022-11-11T11:07:39;8.90;;;8.00;;
16314;SDS011;8266;52.150;4.768;2022-11-11T11:10:11;9.00;;;8.02;;
16314;SDS011;8266;52.150;4.768;2022-11-11T11:12:42;8.43;;;7.63;;
16314;SDS011;8266;52.150;4.768;2022-11-11T11:15:15;9.70;;;8.00;;
16314;SDS011;8266;52.150;4.768;2022-11-11T11:17:47;8.65;;;7.85;;
16314;SDS011;8266;52.150;4.768;2022-11-11T11:20:21;7.80;;;7.00;;
16314;SDS011;8266;52.150;4.768;2022-11-11T11:22:49;9.18;;;8.38;;
16314;SDS011;8266;52.150;4.768;2022-11-11T11:25:20;11.18;;;8.73;;
16314;SDS011;8266;52.150;4.768;2022-11-11T11:27:49;8.95;;;7.18;;
16314;SDS011;8266;52.150;4.768;2022-11-11T11:30:19;9.90;;;7.53;;
16314;SDS011;8266;52.150;4.768;2022-11-11T11:32:54;7.88;;;7.07;;
16314;SDS011;8266;52.150;4.768;2022-11-11T11:35:30;8.55;;;7.57;;
16314;SDS011;8266;52.150;4.768;2022-11-11T11:37:59;8.73;;;7.82;;
16314;SDS011;8266;52.150;4.768;2022-11-11T11:40:26;9.23;;;7.65;;
16314;SDS011;8266;52.150;4.768;2022-11-11T11:43:24;8.40;;;7.57;;
16314;SDS011;8266;52.150;4.768;2022-11-11T11:46:17;9.45;;;7.53;;
16314;SDS011;8266;52.150;4.768;2022-11-11T11:48:50;7.63;;;6.85;;
16314;SDS011;8266;52.150;4.768;2022-11-11T11:51:46;7.20;;;6.50;;
16314;SDS011;8266;52.150;4.768;2022-11-11T11:54:25;7.75;;;6.97;;
16314;SDS011;8266;52.150;4.768;2022-11-11T11:57:11;7.75;;;7.03;;
16314;SDS011;8266;52.150;4.768;2022-11-11T11:59:50;7.55;;;6.85;;
16314;SDS011;8266;52.150;4.768;2022-11-11T12:02:33;9.10;;;7.57;;
16314;SDS011;8266;52.150;4.768;2022-11-11T12:05:13;7.50;;;6.78;;
16314;SDS011;8266;52.150;4.768;2022-11-11T12:07:55;7.82;;;7.13;;
16314;SDS011;8266;52.150;4.768;2022-11-11T12:10:36;8.10;;;6.78;;
16314;SDS011;8266;52.150;4.768;2022-11-11T12:13:14;7.78;;;6.32;;
16314;SDS011;8266;52.150;4.768;2022-11-11T12:15:50;7.80;;;7.05;;
16314;SDS011;8266;52.150;4.768;2022-11-11T12:21:28;7.43;;;5.88;;
16314;SDS011;8266;52.150;4.768;2022-11-11T12:24:06;6.10;;;5.47;;
16314;SDS011;8266;52.150;4.768;2022-11-11T12:26:39;7.63;;;6.25;;
16314;SDS011;8266;52.150;4.768;2022-11-11T12:29:20;6.93;;;6.22;;
16314;SDS011;8266;52.150;4.768;2022-11-11T12:32:02;7.30;;;6.25;;
16314;SDS011;8266;52.150;4.768;2022-11-11T12:35:01;7.68;;;6.20;;
16314;SDS011;8266;52.150;4.768;2022-11-11T12:37:44;7.63;;;6.85;;
16314;SDS011;8266;52.150;4.768;2022-11-11T12:40:23;9.35;;;7.25;;
16314;SDS011;8266;52.150;4.768;2022-11-11T12:43:02;8.38;;;7.45;;
16314;SDS011;8266;52.150;4.768;2022-11-11T12:45:38;8.32;;;7.53;;
16314;SDS011;8266;52.150;4.768;2022-11-11T12:48:17;8.90;;;7.97;;
16314;SDS011;8266;52.150;4.768;2022-11-11T12:50:59;8.38;;;7.30;;
16314;SDS011;8266;52.150;4.768;2022-11-11T12:53:34;8.10;;;7.35;;
16314;SDS011;8266;52.150;4.768;2022-11-11T12:56:11;9.15;;;7.40;;
16314;SDS011;8266;52.150;4.768;2022-11-11T12:58:47;8.52;;;7.65;;
16314;SDS011;8266;52.150;4.768;2022-11-11T13:01:22;7.63;;;6.93;;
16314;SDS011;8266;52.150;4.768;2022-11-11T13:04:03;7.95;;;6.88;;
16314;SDS011;8266;52.150;4.768;2022-11-11T13:06:51;7.78;;;6.93;;
16314;SDS011;8266;52.150;4.768;2022-11-11T13:09:38;8.82;;;6.55;;
16314;SDS011;8266;52.150;4.768;2022-11-11T13:12:22;7.95;;;7.18;;
16314;SDS011;8266;52.150;4.768;2022-11-11T13:14:59;7.22;;;6.22;;
16314;SDS011;8266;52.150;4.768;2022-11-11T13:17:31;7.72;;;6.80;;
16314;SDS011;8266;52.150;4.768;2022-11-11T13:19:59;8.02;;;7.22;;
16314;SDS011;8266;52.150;4.768;2022-11-11T13:22:33;8.05;;;6.88;;
16314;SDS011;8266;52.150;4.768;2022-11-11T13:25:01;7.30;;;6.57;;
16314;SDS011;8266;52.150;4.768;2022-11-11T13:27:34;8.00;;;7.20;;
16314;SDS011;8266;52.150;4.768;2022-11-11T13:30:28;7.72;;;6.88;;
16314;SDS011;8266;52.150;4.768;2022-11-11T13:33:10;7.15;;;6.47;;
16314;SDS011;8266;52.150;4.768;2022-11-11T13:35:41;6.93;;;6.22;;
16314;SDS011;8266;52.150;4.768;2022-11-11T13:38:13;7.18;;;6.28;;
16314;SDS011;8266;52.150;4.768;2022-11-11T13:40:50;6.28;;;5.45;;
16314;SDS011;8266;52.150;4.768;2022-11-11T13:43:21;6.45;;;5.85;;
16314;SDS011;8266;52.150;4.768;2022-11-11T13:45:52;6.30;;;5.70;;
16314;SDS011;8266;52.150;4.768;2022-11-11T13:48:23;6.65;;;5.78;;
16314;SDS011;8266;52.150;4.768;2022-11-11T13:50:53;7.25;;;5.63;;
16314;SDS011;8266;52.150;4.768;2022-11-11T13:53:47;5.80;;;5.20;;
16314;SDS011;8266;52.150;4.768;2022-11-11T13:56:21;6.20;;;5.25;;
16314;SDS011;8266;52.150;4.768;2022-11-11T13:58:52;7.88;;;5.65;;
16314;SDS011;8266;52.150;4.768;2022-11-11T14:01:21;7.78;;;5.75;;
16314;SDS011;8266;52.150;4.768;2022-11-11T14:03:59;5.28;;;4.53;;
16314;SDS011;8266;52.150;4.768;2022-11-11T14:12:37;6.85;;;5.55;;
16314;SDS011;8266;52.150;4.768;2022-11-11T14:18:07;5.03;;;4.13;;
16314;SDS011;8266;52.150;4.768;2022-11-11T14:20:37;5.57;;;4.55;;
16314;SDS011;8266;52.150;4.768;2022-11-11T14:23:21;5.35;;;4.40;;
16314;SDS011;8266;52.150;4.768;2022-11-11T14:28:56;4.90;;;4.13;;
16314;SDS011;8266;52.150;4.768;2022-11-11T14:31:40;5.03;;;4.38;;
16314;SDS011;8266;52.150;4.768;2022-11-11T14:37:20;4.72;;;4.10;;
16314;SDS011;8266;52.150;4.768;2022-11-11T14:39:56;7.30;;;4.78;;
16314;SDS011;8266;52.150;4.768;2022-11-11T14:54:14;4.30;;;3.90;;
16314;SDS011;8266;52.150;4.768;2022-11-11T14:56:54;3.88;;;3.47;;
16314;SDS011;8266;52.150;4.768;2022-11-11T14:59:27;6.47;;;4.00;;
16314;SDS011;8266;52.150;4.768;2022-11-11T15:01:58;5.57;;;3.72;;
16314;SDS011;8266;52.150;4.768;2022-11-11T15:04:26;7.55;;;4.20;;
16314;SDS011;8266;52.150;4.768;2022-11-11T15:07:01;4.53;;;3.97;;
16314;SDS011;8266;52.150;4.768;2022-11-11T15:12:35;4.63;;;3.80;;
16314;SDS011;8266;52.150;4.768;2022-11-11T15:15:11;5.97;;;3.88;;
16314;SDS011;8266;52.150;4.768;2022-11-11T15:17:44;5.85;;;4.10;;
16314;SDS011;8266;52.150;4.768;2022-11-11T15:20:38;8.65;;;4.55;;
16314;SDS011;8266;52.150;4.768;2022-11-11T15:23:17;9.43;;;4.80;;
16314;SDS011;8266;52.150;4.768;2022-11-11T15:25:52;7.10;;;4.40;;
16314;SDS011;8266;52.150;4.768;2022-11-11T15:31:50;7.57;;;4.20;;
16314;SDS011;8266;52.150;4.768;2022-11-11T15:34:28;6.45;;;4.18;;
16314;SDS011;8266;52.150;4.768;2022-11-11T15:37:01;5.65;;;4.57;;
16314;SDS011;8266;52.150;4.768;2022-11-11T15:39:33;4.60;;;4.20;;
16314;SDS011;8266;52.150;4.768;2022-11-11T15:42:09;15.25;;;5.15;;
16314;SDS011;8266;52.150;4.768;2022-11-11T15:44:39;12.23;;;5.57;;
16314;SDS011;8266;52.150;4.768;2022-11-11T15:47:11;7.38;;;4.97;;
16314;SDS011;8266;52.150;4.768;2022-11-11T15:49:40;6.03;;;4.60;;
16314;SDS011;8266;52.150;4.768;2022-11-11T15:52:22;6.82;;;5.00;;
16314;SDS011;8266;52.150;4.768;2022-11-11T15:54:57;6.47;;;4.65;;